Latest Weather Observations for Cessnock Airport

IDN60801

Issued at 9:32 pm EDT Monday 20 February 2017 (issued every 30 minutes, with the page automatically refreshed every 10 minutes)

About weather observations | Map of weather stations | Latest weather observations for NSW | Other Formats
Station Details ID: 061260 Name: CESSNOCK AIRPORT AWS Lat: -32.79 Lon: 151.34 Height: 61.0 m
Data from the previous 72 hours. | See also: Recent months at Cessnock Airport
Date/Time
EDT
Temp
°C
App
Temp
°C
Dew
Point
°C
Rel
Hum
%
Delta-T
°C
Wind Press
QNH
hPa
Press
MSL
hPa
Rain since
9am
mm
Dir  Spd
km/h
Gust
km/h
Spd
kts
Gust
kts
20/09:30pm 16.7 15.7 11.0 69 3.1 S 7 9 4 5 1014.8 1014.5 0.0
20/09:00pm 18.2 17.3 10.6 61 4.1 S 6 9 3 5 1014.4 1014.1 0.0
20/08:30pm 20.0 19.2 9.6 51 5.6 ESE 4 7 2 4 1013.9 1013.6 0.0
20/08:00pm 21.5 19.9 8.7 44 6.8 ESE 7 9 4 5 1013.1 1012.8 0.0
20/07:30pm 22.5 19.6 8.2 40 7.5 ESE 13 19 7 10 1012.2 1011.9 0.0
20/07:00pm 23.9 19.1 7.5 35 8.6 E 22 30 12 16 1011.3 1011.0 0.0
20/06:30pm 25.5 20.6 7.1 31 9.7 ESE 22 32 12 17 1010.3 1010.0 0.0
20/06:00pm 26.8 22.7 7.8 30 10.2 ESE 19 28 10 15 1009.7 1009.4 0.0
20/05:30pm 29.5 26.1 4.2 20 13.0 NW 11 17 6 9 1009.2 1008.9 0.0
20/05:00pm 29.0 25.8 3.1 19 13.0 NNE 9 20 5 11 1008.9 1008.6 0.0
20/04:30pm 29.0 24.8 1.5 17 13.4 NW 13 20 7 11 1008.7 1008.4 0.0
20/04:00pm 28.8 23.9 2.1 18 13.2 W 17 26 9 14 1008.8 1008.5 0.0
20/03:30pm 28.0 23.1 2.2 19 12.7 N 17 30 9 16 1008.9 1008.6 0.0
20/03:00pm 27.9 23.4 4.2 22 12.1 NW 17 30 9 16 1009.0 1008.7 0.0
20/02:30pm 27.8 24.4 6.0 25 11.4 NW 13 26 7 14 1009.3 1009.0 0.0
20/02:00pm 27.1 23.8 6.5 27 10.9 NW 13 28 7 15 1009.7 1009.4 0.0
20/01:30pm 26.1 21.1 4.6 25 10.9 NW 20 28 11 15 1010.0 1009.7 0.0
20/01:00pm 25.5 21.2 5.1 27 10.4 NNW 17 28 9 15 1010.4 1010.1 0.0
20/12:30pm 25.3 21.8 5.5 28 10.1 NNW 13 24 7 13 1010.9 1010.6 0.0
20/12:00pm 23.7 19.6 4.6 29 9.5 NW 15 20 8 11 1011.2 1010.9 0.0
20/11:30am 23.8 19.5 5.2 30 9.4 NW 17 26 9 14 1011.4 1011.1 0.0
20/11:00am 23.0 18.3 5.0 31 9.0 NW 19 30 10 16 1011.8 1011.5 0.0
20/10:30am 22.4 18.8 4.9 32 8.7 WNW 13 26 7 14 1011.8 1011.5 0.0
20/10:00am 22.4 18.5 5.4 33 8.5 WNW 15 32 8 17 1011.7 1011.4 0.0
20/09:30am 21.6 17.3 5.1 34 8.2 W 17 24 9 13 1011.8 1011.5 0.0
20/09:00am 20.9 16.5 4.9 35 7.9 W 17 28 9 15 1011.6 1011.3 1.4
20/08:30am 20.5 17.1 4.1 34 7.9 W 11 17 6 9 1011.5 1011.2 1.4
20/08:00am 19.8 16.5 4.7 37 7.3 W 11 20 6 11 1011.3 1011.0 1.4
20/07:30am 18.9 15.5 3.9 37 7.1 W 11 15 6 8 1011.0 1010.7 1.4
20/07:00am 18.5 14.6 3.6 37 7.0 W 13 20 7 11 1010.8 1010.5 1.4
20/06:30am 17.1 13.7 4.1 42 6.1 WSW 11 17 6 9 1010.4 1010.1 1.4
20/06:00am 16.1 13.1 3.9 44 5.7 WSW 9 15 5 8 1010.0 1009.7 1.4
20/05:30am 14.9 11.8 5.4 53 4.5 WSW 11 15 6 8 1009.6 1009.3 1.4
20/05:00am 14.2 11.7 6.6 60 3.7 WSW 9 15 5 8 1009.0 1008.7 1.4
20/04:30am 13.8 11.0 7.1 64 3.3 SW 11 13 6 7 1008.7 1008.4 1.4
20/04:00am 16.2 13.4 5.2 48 5.3 WSW 9 9 5 5 1008.2 1007.9 1.4
20/03:30am 17.3 14.4 4.6 43 6.0 WSW 9 13 5 7 1007.9 1007.6 1.4
20/03:00am 19.5 15.6 3.2 34 7.7 WNW 13 19 7 10 1007.6 1007.3 1.4
20/02:30am 19.9 17.3 7.9 46 6.2 WNW 11 13 6 7 1007.2 1006.9 1.4
20/02:00am 20.0 20.7 16.0 78 2.4 WNW 7 11 4 6 1006.9 1006.6 1.4
20/01:30am 20.7 21.7 16.9 79 2.3 WNW 7 11 4 6 1006.8 1006.5 1.4
20/01:00am 21.3 21.0 16.5 74 2.9 W 13 20 7 11 1006.7 1006.4 1.4
20/12:30am 19.8 22.2 17.9 89 1.2 SE 2 7 1 4 1006.7 1006.4 1.4
20/12:00am 20.3 21.9 18.2 88 1.3 N 7 11 4 6 1006.6 1006.3 1.4
 
Date/Time
EDT
Temp
°C
App
Temp
°C
Dew
Point
°C
Rel
Hum
%
Delta-T
°C
Wind Press
QNH
hPa
Press
MSL
hPa
Rain since
9am
mm
Dir  Spd
km/h
Gust
km/h
Spd
kts
Gust
kts
19/11:30pm 20.9 22.4 18.1 84 1.7 W 7 11 4 6 1006.3 1006.0 1.4
19/11:00pm 20.4 21.7 18.5 89 1.2 WSW 9 15 5 8 1006.1 1005.8 1.4
19/10:30pm 19.8 21.4 18.3 91 0.9 WSW 7 11 4 6 1005.7 1005.4 1.4
19/10:00pm 19.9 22.0 18.2 90 1.1 SSW 4 11 2 6 1005.7 1005.4 1.4
19/09:30pm 20.0 22.9 18.1 89 1.2 CALM 0 7 0 4 1005.3 1005.1 1.4
19/09:00pm 20.3 22.0 18.1 87 1.4 SW 6 9 3 5 1004.7 1004.5 1.4
19/08:30pm 20.5 22.5 17.9 85 1.6 ESE 4 11 2 6 1004.8 1004.6 1.4
19/08:00pm 21.4 22.8 17.8 80 2.2 ESE 7 9 4 5 1005.2 1005.0 1.4
19/07:30pm 21.7 22.4 17.9 79 2.4 ENE 11 19 6 10 1005.7 1005.4 1.4
19/07:00pm 21.8 22.1 18.0 79 2.4 ENE 13 17 7 9 1005.3 1005.1 1.4
19/06:30pm 22.2 22.0 17.6 75 2.9 E 15 17 8 9 1004.9 1004.7 1.4
19/06:00pm 22.4 22.3 17.8 75 2.9 E 15 22 8 12 1004.6 1004.4 1.4
19/05:30pm 22.8 22.0 17.9 74 3.1 ENE 19 22 10 12 1005.1 1004.9 1.4
19/05:00pm 23.1 23.1 18.2 74 3.1 E 15 20 8 11 1004.6 1004.4 1.4
19/04:30pm 23.5 23.5 18.2 72 3.3 ENE 15 22 8 12 1005.0 1004.8 1.4
19/04:00pm 23.4 23.9 18.3 73 3.2 E 13 19 7 10 1005.1 1004.9 1.4
19/03:30pm 23.8 25.4 17.8 69 3.8 ESE 6 11 3 6 1005.5 1005.3 1.4
19/03:00pm 22.6 24.4 18.8 79 2.4 E 7 11 4 6 1005.5 1005.3 1.4
19/02:30pm 22.5 23.8 17.2 72 3.3 ESE 6 9 3 5 1006.7 1006.4 1.2
19/02:00pm 21.7 23.5 18.3 81 2.1 SSW 6 11 3 6 1006.8 1006.5 1.2
19/01:30pm 23.1 22.7 16.2 65 4.2 S 13 17 7 9 1007.0 1006.7 0.0
19/01:00pm 23.8 24.4 16.8 65 4.3 S 9 15 5 8 1007.2 1006.9 0.0
19/12:30pm 22.6 21.8 16.2 67 3.9 SSW 15 20 8 11 1007.8 1007.5 0.0
19/12:00pm 21.3 22.0 17.1 77 2.6 SW 9 13 5 7 1008.3 1008.0 0.0
19/11:30am 21.8 21.4 16.3 71 3.3 SSW 13 20 7 11 1008.3 1008.0 0.0
19/11:00am 21.5 22.2 17.1 76 2.7 S 9 13 5 7 1008.2 1007.9 0.0
19/10:30am 21.4 21.0 17.2 77 2.6 SSW 15 20 8 11 1008.0 1007.7 0.0
19/10:00am 20.6 21.5 17.6 83 1.9 SSW 9 13 5 7 1008.0 1007.7 0.0
19/09:30am 20.7 22.2 18.1 85 1.6 W 7 15 4 8 1008.1 1007.8 0.0
19/09:00am 20.4 21.7 18.5 89 1.2 SSW 9 13 5 7 1008.1 1007.8 14.4
19/08:30am 20.2 20.8 18.5 90 1.1 S 13 17 7 9 1007.9 1007.6 14.4
19/08:00am 20.3 21.8 18.8 91 0.9 S 9 11 5 6 1007.7 1007.4 14.4
19/07:30am 20.5 22.9 18.8 90 1.1 S 4 11 2 6 1007.4 1007.1 14.2
19/07:00am 20.7 22.8 19.4 92 0.8 SW 7 11 4 6 1007.2 1006.9 13.8
19/06:30am 21.1 22.7 19.2 89 1.2 S 9 13 5 7 1006.6 1006.3 12.2
19/06:00am 21.7 25.0 19.1 85 1.7 CALM 0 0 0 0 1006.6 1006.3 12.2
19/05:30am 21.7 25.1 19.4 87 1.5 CALM 0 0 0 0 1006.2 1005.9 12.2
19/05:00am 21.6 24.8 18.8 84 1.8 CALM 0 0 0 0 1005.9 1005.6 12.2
19/04:30am 21.6 24.5 19.0 85 1.6 WSW 2 6 1 3 1005.5 1005.3 12.2
19/04:00am 21.7 22.7 18.7 83 1.9 SSW 11 15 6 8 1005.3 1005.1 12.2
19/03:30am 21.6 23.6 19.2 86 1.5 SW 7 11 4 6 1005.4 1005.2 12.2
19/03:00am 21.7 23.7 19.1 85 1.7 SW 7 13 4 7 1005.5 1005.3 12.2
19/02:30am 21.9 23.7 19.5 86 1.5 SW 9 13 5 7 1005.3 1005.1 12.2
19/02:00am 21.7 23.5 19.6 88 1.3 WSW 9 15 5 8 1005.1 1004.9 12.2
19/01:30am 22.0 23.1 19.7 87 1.5 WSW 13 17 7 9 1005.3 1005.1 12.2
19/01:00am 22.1 24.1 20.0 88 1.4 SW 9 13 5 7 1005.5 1005.3 12.2
19/12:30am 22.1 23.7 20.0 88 1.4 WSW 11 17 6 9 1005.4 1005.2 12.2
19/12:00am 22.6 24.0 20.3 87 1.5 SW 13 19 7 10 1005.0 1004.8 12.2
 
Date/Time
EDT
Temp
°C
App
Temp
°C
Dew
Point
°C
Rel
Hum
%
Delta-T
°C
Wind Press
QNH
hPa
Press
MSL
hPa
Rain since
9am
mm
Dir  Spd
km/h
Gust
km/h
Spd
kts
Gust
kts
18/11:30pm 22.7 23.8 20.4 87 1.5 SSW 15 20 8 11 1005.2 1005.0 12.2
18/11:00pm 23.1 23.8 20.4 85 1.8 SSW 17 26 9 14 1005.1 1004.9 12.2
18/10:30pm 23.2 24.0 20.7 86 1.6 SSW 17 24 9 13 1005.2 1005.0 12.2
18/10:00pm 22.4 25.1 20.7 90 1.1 SSW 7 11 4 6 1005.8 1005.5 12.2
18/09:30pm 23.2 25.5 20.7 86 1.6 SW 9 17 5 9 1005.4 1005.2 12.2
18/09:00pm 23.0 24.1 20.5 86 1.6 SSW 15 24 8 13 1004.0 1003.8 12.2
18/08:30pm 22.9 22.9 20.2 85 1.7 SSW 20 28 11 15 1003.1 1002.9 12.2
18/08:00pm 23.0 24.4 19.6 81 2.2 S 11 17 6 9 1003.3 1003.1 12.2
18/07:30pm 22.9 24.6 20.1 84 1.8 SSW 11 15 6 8 1002.4 1002.1 12.2
18/07:00pm 22.9 24.3 20.4 86 1.6 S 13 20 7 11 1001.6 1001.3 12.2
18/06:30pm 21.8 23.4 20.8 94 0.7 SSW 13 19 7 10 1002.1 1001.8 12.2
18/06:00pm 21.6 23.7 20.2 92 0.9 WSW 9 11 5 6 1002.8 1002.6 11.8
18/05:30pm 21.7 20.2 19.4 87 1.5 WSW 26 43 14 23 1003.8 1003.6 9.0
18/05:19pm 25.6 23.3 18.5 65 4.5 SSW 28 39 15 21 1003.1 1002.9 0.4
18/05:00pm 28.2 27.0 17.4 52 6.8 SE 20 28 11 15 1001.1 1000.8 0.0
18/04:30pm 29.0 28.2 17.2 49 7.4 SE 17 28 9 15 1001.7 1001.4 0.0
18/04:00pm 30.1 29.0 17.2 46 8.2 ESE 19 28 10 15 1002.0 1001.7 0.0
18/03:30pm 31.5 29.8 18.1 44 8.6 SSE 24 37 13 20 1002.9 1002.7 0.0
18/03:00pm 31.3 29.1 17.9 44 8.6 SE 26 35 14 19 1002.8 1002.6 0.0
18/02:30pm 32.8 31.0 17.8 40 9.7 SE 24 32 13 17 1003.0 1002.8 0.0
18/02:00pm 36.7 35.2 16.3 30 13.1 NNW 19 32 10 17 1002.6 1002.4 0.0
18/01:30pm 36.1 33.7 16.3 31 12.6 NW 24 39 13 21 1003.0 1002.8 0.0
18/01:00pm 36.1 34.2 16.8 32 12.4 NW 22 39 12 21 1003.3 1003.1 0.0
18/12:30pm 35.0 32.9 17.2 34 11.5 NW 24 43 13 23 1003.9 1003.7 0.0
18/12:00pm 34.3 31.6 17.5 36 10.9 NW 28 54 15 29 1004.4 1004.2 0.0
18/11:30am 33.6 30.8 17.3 37 10.5 NW 28 48 15 26 1004.7 1004.5 0.0
18/11:21am 33.1 30.0 16.5 37 10.5 NW 28 48 15 26 1004.7 1004.5 0.0
18/11:00am 32.3 29.1 16.2 38 10.2 NW 28 44 15 24 1005.1 1004.9 0.0
18/10:30am 31.9 30.5 16.6 39 9.7 NW 19 32 10 17 1005.5 1005.3 0.0
18/10:00am 30.6 29.2 16.6 43 8.8 WNW 19 33 10 18 1006.0 1005.7 0.0
18/09:30am 29.7 28.4 16.8 45 8.1 NW 19 30 10 16 1006.0 1005.7 0.0
18/09:00am 28.6 27.6 16.5 48 7.6 NW 17 30 9 16 1006.1 1005.8 5.0
18/08:30am 27.9 27.5 17.1 51 6.8 NW 15 32 8 17 1006.1 1005.8 5.0
18/08:00am 25.1 26.6 19.0 69 3.9 NNE 9 22 5 12 1006.1 1005.8 5.0
18/07:30am 20.7 24.2 19.5 93 0.8 CALM 0 0 0 0 1006.2 1005.9 5.0
18/07:00am 18.9 21.8 18.1 95 0.5 CALM 0 0 0 0 1006.0 1005.7 5.0
18/06:30am 18.5 21.2 17.7 95 0.5 CALM 0 0 0 0 1005.9 1005.6 5.0
18/06:00am 18.1 19.3 17.3 95 0.5 SSE 7 9 4 5 1005.7 1005.4 5.0
18/05:30am 18.8 20.3 18.0 95 0.5 S 7 9 4 5 1005.8 1005.5 5.0
18/05:00am 18.8 20.3 18.0 95 0.5 SSE 7 11 4 6 1005.8 1005.5 5.0
18/04:30am 18.9 21.7 17.9 94 0.6 CALM 0 0 0 0 1006.0 1005.7 5.0
18/04:00am 18.9 21.6 17.7 93 0.7 CALM 0 0 0 0 1006.5 1006.2 5.0
18/03:30am 19.0 21.7 17.8 93 0.7 CALM 0 0 0 0 1006.6 1006.3 5.0
18/03:00am 19.6 22.6 18.4 93 0.7 CALM 0 0 0 0 1006.9 1006.6 5.0
18/02:30am 20.0 22.7 18.7 92 0.8 NNE 2 6 1 3 1007.5 1007.2 5.0
18/02:00am 20.1 21.5 18.6 91 0.9 WSW 9 11 5 6 1007.9 1007.6 5.0
18/01:30am 20.4 22.7 18.5 89 1.2 NW 4 6 2 3 1008.4 1008.1 5.0
18/01:00am 20.7 23.0 18.6 88 1.3 WSW 4 11 2 6 1008.8 1008.5 5.0
18/12:30am 20.8 22.6 18.7 88 1.3 WSW 7 9 4 5 1009.2 1008.9 5.0
18/12:00am 21.2 22.7 18.9 87 1.5 SSW 9 11 5 6 1009.4 1009.1 5.0
 
Date/Time
EDT
Temp
°C
App
Temp
°C
Dew
Point
°C
Rel
Hum
%
Delta-T
°C
Wind Press
QNH
hPa
Press
MSL
hPa
Rain since
9am
mm
Dir  Spd
km/h
Gust
km/h
Spd
kts
Gust
kts
17/11:30pm 21.1 23.1 19.2 89 1.2 SSW 7 9 4 5 1009.9 1009.6 5.0
17/11:00pm 21.4 23.5 19.3 88 1.3 SSE 7 11 4 6 1010.1 1009.8 5.0
17/10:30pm 21.5 22.6 19.6 89 1.2 SSE 13 17 7 9 1010.4 1010.1 5.0
17/10:00pm 22.8 22.7 18.8 78 2.5 SSW 17 26 9 14 1010.9 1010.6 3.6

Other Formats:

Comma delimited format used in spreadsheet applications
http://www.bom.gov.au/fwo/IDN60801/IDN60801.95771.axf

JavaScript Object Notation format (JSON) in row-major order
http://www.bom.gov.au/fwo/IDN60801/IDN60801.95771.json